createdAt,value
2022-10-21T00:01:16.181Z,97.72
2022-10-21T00:03:17.540Z,97.78
2022-10-21T00:05:19.156Z,97.79
2022-10-21T00:09:21.531Z,97.7
2022-10-21T00:11:23.292Z,97.75
2022-10-21T00:13:24.534Z,97.7
2022-10-21T00:15:26.045Z,97.56
2022-10-21T00:17:27.873Z,97.5
2022-10-21T00:19:29.754Z,97.47
2022-10-21T00:21:31.412Z,97.65
2022-10-21T00:23:32.586Z,97.9
2022-10-21T00:25:33.907Z,98.13
2022-10-21T00:27:35.119Z,98.14
2022-10-21T00:29:36.361Z,98.13
2022-10-21T00:31:37.410Z,98.03
2022-10-21T00:33:38.316Z,97.95
2022-10-21T00:35:39.647Z,97.91
2022-10-21T00:37:40.968Z,97.86
2022-10-21T00:39:42.532Z,97.76
2022-10-21T00:41:43.808Z,97.65
2022-10-21T00:43:44.991Z,97.37
2022-10-21T00:45:46.181Z,97.21
2022-10-21T00:51:50.447Z,97.02
2022-10-21T00:53:51.468Z,96.62
2022-10-21T00:55:52.817Z,96.47
2022-10-21T00:57:54.389Z,96.74
2022-10-21T00:59:55.470Z,96.78
2022-10-21T01:01:56.852Z,96.83
2022-10-21T01:03:58.680Z,96.9
2022-10-21T01:05:59.608Z,96.85
2022-10-21T01:08:00.953Z,96.98
2022-10-21T01:10:02.132Z,97.12
2022-10-21T01:12:03.251Z,97.16
2022-10-21T01:14:05.073Z,97.33
2022-10-21T01:16:06.685Z,97.45
2022-10-21T01:18:07.960Z,97.57
2022-10-21T01:20:09.462Z,97.7
2022-10-21T01:24:11.970Z,97.8
2022-10-21T01:26:12.926Z,97.91
2022-10-21T01:28:14.025Z,97.95
2022-10-21T01:30:15.064Z,97.99
2022-10-21T01:34:17.817Z,97.97
2022-10-21T01:36:19.459Z,97.95
2022-10-21T01:38:21.009Z,98.11
2022-10-21T01:40:22.289Z,98.13
2022-10-21T01:42:23.252Z,98.36
2022-10-21T01:44:24.479Z,98.46
2022-10-21T01:46:25.518Z,98.44
2022-10-21T01:50:28.331Z,98.41
2022-10-21T01:52:30.224Z,98.36
2022-10-21T01:54:31.855Z,98.36
2022-10-21T01:56:33.477Z,98.46
2022-10-21T01:58:34.936Z,98.55
2022-10-21T02:00:36.002Z,98.42
2022-10-21T02:02:37.723Z,98.56
2022-10-21T02:04:39.281Z,98.64
2022-10-21T02:06:40.146Z,98.65
2022-10-21T02:08:41.408Z,98.61
2022-10-21T02:10:42.791Z,98.58
2022-10-21T02:12:44.344Z,98.52
2022-10-21T02:14:46.172Z,98.51
2022-10-21T02:16:47.466Z,98.74
2022-10-21T02:18:48.919Z,98.58
2022-10-21T02:20:50.239Z,98.64
2022-10-21T02:22:51.265Z,98.78
2022-10-21T02:24:52.201Z,98.82
2022-10-21T02:26:53.582Z,98.91
2022-10-21T02:28:55.007Z,98.88
2022-10-21T02:32:58.613Z,98.87
2022-10-21T02:35:00.173Z,98.89
2022-10-21T02:37:01.447Z,98.92
2022-10-21T02:39:02.909Z,98.95
2022-10-21T02:41:03.942Z,98.95
2022-10-21T02:43:04.866Z,98.95
2022-10-21T02:45:06.648Z,98.93
2022-10-21T02:47:08.082Z,98.93
2022-10-21T02:49:08.994Z,98.94
2022-10-21T02:51:10.533Z,98.92
2022-10-21T02:53:12.154Z,98.97
2022-10-21T02:55:13.449Z,99.03
2022-10-21T02:57:15.256Z,99
2022-10-21T02:59:16.624Z,98.96
2022-10-21T03:01:17.636Z,98.96
2022-10-21T03:03:19.229Z,98.96
2022-10-21T03:05:21.076Z,99.03
2022-10-21T03:07:22.719Z,99.05
2022-10-21T03:09:24.444Z,99.06
2022-10-21T03:11:25.742Z,99.06
2022-10-21T03:15:28.105Z,99.07
2022-10-21T03:17:29.617Z,98.98
2022-10-21T03:19:30.815Z,99.03
2022-10-21T03:21:32.144Z,99.09
2022-10-21T03:23:33.778Z,99.17
2022-10-21T03:25:35.921Z,99.19
2022-10-21T03:27:36.645Z,99.17
2022-10-21T03:29:37.913Z,99.21
2022-10-21T03:31:39.505Z,99.23
2022-10-21T03:33:40.971Z,99.24
2022-10-21T03:35:42.679Z,99.19
2022-10-21T03:37:44.578Z,99.16
2022-10-21T03:39:46.149Z,99.19
2022-10-21T03:40:29.981Z,99.17
2022-10-21T03:42:31.642Z,99.21
2022-10-21T03:44:33.275Z,99.1
2022-10-21T03:46:34.353Z,99.06
2022-10-21T03:48:35.462Z,99.1
2022-10-21T03:52:38.775Z,99.36
2022-10-21T03:54:40.240Z,99.29
2022-10-21T03:56:41.443Z,99.18
2022-10-21T03:58:43.247Z,99.15
2022-10-21T04:00:44.431Z,99.15
2022-10-21T04:02:46.119Z,99.12
2022-10-21T04:04:47.656Z,99.15
2022-10-21T04:06:48.861Z,99.17
2022-10-21T04:08:49.841Z,99.18
2022-10-21T04:10:51.709Z,99.19
2022-10-21T04:12:53.107Z,99.2
2022-10-21T04:14:54.441Z,99.22
2022-10-21T04:17:02.588Z,99.2
2022-10-21T04:18:57.614Z,99.19
2022-10-21T04:20:59.306Z,99.18
2022-10-21T04:23:00.303Z,99.16
2022-10-21T04:25:02.376Z,99.15
2022-10-21T04:27:02.948Z,99.13
2022-10-21T04:29:04.701Z,99.14
2022-10-21T04:31:05.936Z,99.17
2022-10-21T04:33:07.245Z,99.2
2022-10-21T04:35:09.116Z,99.21
2022-10-21T04:37:10.898Z,99.24
2022-10-21T04:39:12.183Z,99.26
2022-10-21T04:41:13.382Z,99.26
2022-10-21T04:43:14.981Z,99.15
2022-10-21T04:45:16.417Z,99.18
2022-10-21T04:47:17.721Z,99.2
2022-10-21T04:51:20.890Z,99.33
2022-10-21T04:53:22.045Z,99.33
2022-10-21T04:55:23.318Z,99.31
2022-10-21T04:57:24.475Z,99.3
2022-10-21T04:59:25.476Z,99.29
2022-10-21T05:01:27.392Z,99.29
2022-10-21T05:03:28.446Z,99.37
2022-10-21T05:05:29.865Z,99.42
2022-10-21T05:07:30.794Z,99.4
2022-10-21T05:09:32.605Z,99.32
2022-10-21T05:11:34.006Z,99.3
2022-10-21T05:13:35.012Z,99.32
2022-10-21T05:15:36.552Z,99.33
2022-10-21T05:17:37.981Z,99.39
2022-10-21T05:19:39.453Z,99.42
2022-10-21T05:21:40.738Z,99.44
2022-10-21T05:23:42.602Z,99.47
2022-10-21T05:25:43.637Z,99.47
2022-10-21T05:27:44.603Z,99.38
2022-10-21T05:29:46.183Z,99.35
2022-10-21T05:33:48.363Z,99.42
2022-10-21T05:35:49.289Z,99.43
2022-10-21T05:37:50.518Z,99.41
2022-10-21T05:39:52.097Z,99.43
2022-10-21T05:41:53.510Z,99.4
2022-10-21T05:43:55.180Z,99.42
2022-10-21T05:45:56.466Z,99.43
2022-10-21T05:47:58.123Z,99.4
2022-10-21T05:49:59.366Z,99.42
2022-10-21T05:52:00.959Z,99.39
2022-10-21T05:54:02.540Z,99.36
2022-10-21T05:56:03.690Z,99.36
2022-10-21T05:58:05.478Z,99.4
2022-10-21T06:00:06.472Z,99.41
2022-10-21T06:02:08.286Z,99.44
2022-10-21T06:04:10.070Z,99.33
2022-10-21T06:06:11.788Z,99.31
2022-10-21T06:08:13.283Z,99.37
2022-10-21T06:10:14.601Z,99.41
2022-10-21T06:12:16.006Z,99.42
2022-10-21T06:16:18.433Z,99.45
2022-10-21T06:18:19.496Z,99.43
2022-10-21T06:22:22.080Z,99.4
2022-10-21T06:24:23.999Z,99.33
2022-10-21T06:26:25.656Z,99.33
2022-10-21T06:28:27.468Z,99.36
2022-10-21T06:30:29.282Z,99.41
2022-10-21T06:32:30.558Z,99.39
2022-10-21T06:34:32.104Z,99.4
2022-10-21T06:36:33.038Z,99.39
2022-10-21T06:38:34.791Z,99.44
2022-10-21T06:40:35.841Z,99.45
2022-10-21T06:42:37.534Z,99.45
2022-10-21T06:44:38.573Z,99.39
2022-10-21T06:46:40.215Z,99.37
2022-10-21T06:48:42.304Z,99.38
2022-10-21T06:50:43.763Z,99.39
2022-10-21T06:52:44.954Z,99.37
2022-10-21T06:54:46.494Z,99.33
2022-10-21T06:56:47.444Z,99.31
2022-10-21T07:00:50.193Z,99.39
2022-10-21T07:02:51.862Z,99.48
2022-10-21T07:04:52.870Z,99.58
2022-10-21T07:06:54.134Z,99.5
2022-10-21T07:08:58.726Z,99.47
2022-10-21T07:10:57.819Z,99.49
2022-10-21T07:15:00.747Z,99.43
2022-10-21T07:17:02.105Z,99.47
2022-10-21T07:19:03.921Z,99.48
2022-10-21T07:21:04.946Z,99.48
2022-10-21T07:23:05.907Z,99.59
2022-10-21T07:25:07.054Z,99.58
2022-10-21T07:27:08.191Z,99.51
2022-10-21T07:29:09.382Z,99.48
2022-10-21T07:31:11.030Z,99.43
2022-10-21T07:33:12.461Z,99.4
2022-10-21T07:35:13.582Z,99.4
2022-10-21T07:37:14.544Z,99.47
2022-10-21T07:39:15.547Z,99.48
2022-10-21T07:41:16.937Z,99.54
2022-10-21T07:43:18.365Z,99.6
2022-10-21T07:45:19.383Z,99.7
2022-10-21T07:47:20.673Z,99.65
2022-10-21T07:49:21.924Z,99.29
2022-10-21T07:51:25.667Z,99.27
2022-10-21T07:53:24.594Z,99.23
2022-10-21T07:55:26.002Z,99.27
2022-10-21T07:57:27.561Z,99.27
2022-10-21T07:59:28.461Z,99.34
2022-10-21T08:01:29.682Z,99.39
2022-10-21T08:03:30.817Z,99.75
2022-10-21T08:05:32.058Z,99.83
2022-10-21T08:07:33.268Z,99.89
2022-10-21T08:09:35.097Z,99.79
2022-10-21T08:11:36.348Z,99.57
2022-10-21T08:13:37.276Z,99.29
2022-10-21T08:15:38.650Z,98.58
2022-10-21T08:17:40.320Z,98.54
2022-10-21T08:19:41.448Z,98.94
2022-10-21T08:21:42.889Z,99.2
2022-10-21T08:25:45.853Z,98.84
2022-10-21T08:27:47.351Z,98.81
2022-10-21T08:29:48.604Z,98.82
2022-10-21T08:31:50.419Z,98.63
2022-10-21T08:33:51.744Z,98.28
2022-10-21T08:35:53.226Z,98.15
2022-10-21T08:37:54.262Z,98.04
2022-10-21T08:39:55.993Z,98.3
2022-10-21T08:41:57.405Z,98.35
2022-10-21T08:43:58.968Z,98.34
2022-10-21T08:45:59.986Z,97.99
2022-10-21T08:48:00.887Z,97.97
2022-10-21T08:50:02.517Z,98.04
2022-10-21T08:52:03.864Z,97.92
2022-10-21T08:54:05.159Z,97.94
2022-10-21T08:58:10.539Z,97.08
2022-10-21T09:00:09.822Z,97.13
2022-10-21T09:02:11.483Z,97
2022-10-21T09:04:12.690Z,96.97
2022-10-21T09:08:15.242Z,97.51
2022-10-21T09:10:16.295Z,97.25
2022-10-21T09:12:17.532Z,96.9
2022-10-21T09:14:19.565Z,96.73
2022-10-21T09:16:21.269Z,96.36
2022-10-21T09:18:22.576Z,96.32
2022-10-21T09:20:23.994Z,96.17
2022-10-21T09:22:35.084Z,96.09
2022-10-21T09:24:27.240Z,95.98
2022-10-21T09:26:30.134Z,96.08
2022-10-21T09:28:29.910Z,95.88
2022-10-21T09:30:31.150Z,95.88
2022-10-21T09:32:32.688Z,95.88
2022-10-21T09:34:34.442Z,95.95
2022-10-21T09:36:36.082Z,96.02
2022-10-21T09:38:37.922Z,96.09
2022-10-21T09:40:38.837Z,96.15
2022-10-21T09:42:47.187Z,96.32
2022-10-21T09:44:42.027Z,96.37
2022-10-21T09:46:43.092Z,96.47
2022-10-21T09:49:06.833Z,96.61
2022-10-21T09:50:45.299Z,96.81
2022-10-21T09:52:46.787Z,96.93
2022-10-21T09:56:49.478Z,97.24
2022-10-21T09:58:50.428Z,97.36
2022-10-21T10:00:51.396Z,97.57
2022-10-21T10:02:52.620Z,97.64
2022-10-21T10:06:54.627Z,97.75
2022-10-21T10:08:56.264Z,97.76
2022-10-21T10:10:57.714Z,97.81
2022-10-21T10:12:59.438Z,97.86
2022-10-21T10:15:00.975Z,97.84
2022-10-21T10:17:02.684Z,97.7
2022-10-21T10:19:03.603Z,97.71
2022-10-21T10:21:04.892Z,97.7
2022-10-21T10:23:06.014Z,97.7
2022-10-21T10:25:07.071Z,97.73
2022-10-21T10:28:10.673Z,97.71
2022-10-21T10:30:11.998Z,97.68
2022-10-21T10:32:13.082Z,97.48
2022-10-21T10:34:14.226Z,97.48
2022-10-21T10:36:15.583Z,97.5
2022-10-21T10:38:16.774Z,97.48
2022-10-21T10:40:17.798Z,97.47
2022-10-21T10:42:19.531Z,97.49
2022-10-21T10:44:20.660Z,97.52
2022-10-21T10:46:22.482Z,97.58
2022-10-21T10:48:23.509Z,97.61
2022-10-21T10:50:24.460Z,97.71
2022-10-21T10:52:25.862Z,97.59
2022-10-21T10:54:26.809Z,97.62
2022-10-21T10:56:28.417Z,97.51
2022-10-21T10:58:30.085Z,97.55
2022-10-21T11:00:31.700Z,97.32
2022-10-21T11:02:33.493Z,97.35
2022-10-21T11:04:34.646Z,97.27
2022-10-21T11:06:36.472Z,97.35
2022-10-21T11:10:39.374Z,97.24
2022-10-21T11:12:41.099Z,97.13
2022-10-21T11:14:42.383Z,97.08
2022-10-21T11:16:57.151Z,97.11
2022-10-21T11:18:48.717Z,97.29
2022-10-21T11:20:46.760Z,96.93
2022-10-21T11:22:48.467Z,96.82
2022-10-21T11:24:50.210Z,96.22
2022-10-21T11:26:51.514Z,96.3
2022-10-21T11:28:53.091Z,95.84
2022-10-21T11:30:53.939Z,94.9
2022-10-21T11:32:55.076Z,95.1
2022-10-21T11:34:56.845Z,95.26
2022-10-21T11:36:58.431Z,94.99
2022-10-21T11:38:59.987Z,94.47
2022-10-21T11:41:00.852Z,94.34
2022-10-21T11:43:02.209Z,94.51
2022-10-21T11:45:03.168Z,94.01
2022-10-21T11:47:04.477Z,93.76
2022-10-21T11:49:05.982Z,93.97
2022-10-21T11:51:07.262Z,93.89
2022-10-21T11:53:08.718Z,93.55
2022-10-21T11:55:10.939Z,94
2022-10-21T11:57:11.657Z,93.73
2022-10-21T11:59:13.272Z,93.26
2022-10-21T12:01:14.153Z,94.05
2022-10-21T12:03:15.680Z,94.33
2022-10-21T12:05:16.965Z,94.81
2022-10-21T12:07:18.087Z,95.25
2022-10-21T12:09:19.649Z,95.12
2022-10-21T12:11:20.922Z,94.27
2022-10-21T12:13:22.511Z,94.31
2022-10-21T12:15:24.112Z,93.89
2022-10-21T12:17:25.430Z,93.44
2022-10-21T12:19:26.357Z,92.95
2022-10-21T12:21:27.231Z,92.74
2022-10-21T12:23:28.627Z,92.79
2022-10-21T12:25:30.191Z,93.41
2022-10-21T12:27:31.291Z,93.34
2022-10-21T12:29:32.849Z,92.88
2022-10-21T12:31:34.550Z,92.55
2022-10-21T12:33:35.776Z,92.66
2022-10-21T12:35:37.107Z,93.09
2022-10-21T12:37:38.498Z,92.18
2022-10-21T12:39:39.551Z,92.73
2022-10-21T12:41:40.819Z,92.86
2022-10-21T12:43:41.869Z,92.91
2022-10-21T12:45:42.893Z,92.7
2022-10-21T12:49:45.702Z,92.3
2022-10-21T12:51:47.191Z,92.1
2022-10-21T12:53:49.047Z,91.44
2022-10-21T12:55:50.670Z,92.06
2022-10-21T12:57:52.190Z,91.29
2022-10-21T12:59:54.033Z,91.43
2022-10-21T13:01:55.653Z,90.74
2022-10-21T13:03:57.435Z,91.56
2022-10-21T13:05:59.146Z,91.68
2022-10-21T13:08:00.723Z,91.76
2022-10-21T13:10:02.493Z,90.94
2022-10-21T13:12:04.142Z,91.32
2022-10-21T13:14:05.227Z,91.08
2022-10-21T13:16:06.799Z,91.06
2022-10-21T13:18:08.201Z,90.2
2022-10-21T13:24:12.875Z,90.12
2022-10-21T13:26:14.038Z,90.2
2022-10-21T13:28:15.232Z,90.43
2022-10-21T13:30:16.387Z,90.27
2022-10-21T13:34:19.098Z,89.77
2022-10-21T13:36:20.642Z,89.96
2022-10-21T13:38:22.365Z,90.09
2022-10-21T13:40:24.098Z,89.96
2022-10-21T13:42:25.141Z,89.35
2022-10-21T13:44:25.761Z,89.14
2022-10-21T13:46:27.338Z,88.54
2022-10-21T13:48:28.518Z,88.01
2022-10-21T13:50:29.646Z,87.78
2022-10-21T13:52:31.424Z,86.73
2022-10-21T13:54:32.744Z,86.81
2022-10-21T13:56:34.398Z,85.23
2022-10-21T13:58:35.209Z,86.49
2022-10-21T14:00:36.414Z,86.8
2022-10-21T14:02:37.757Z,86.43
2022-10-21T14:04:38.616Z,86.45
2022-10-21T14:06:39.544Z,85.16
2022-10-21T14:08:40.472Z,85.25
2022-10-21T14:10:42.037Z,85.21
2022-10-21T14:12:43.634Z,83.79
2022-10-21T14:14:45.164Z,83.79
2022-10-21T14:16:46.802Z,84.18
2022-10-21T14:18:47.644Z,84.44
2022-10-21T14:20:48.569Z,84.06
2022-10-21T14:22:50.137Z,85.11
2022-10-21T14:24:51.232Z,85.17
2022-10-21T14:26:52.404Z,86
2022-10-21T14:28:53.622Z,86.47
2022-10-21T14:32:55.958Z,86.76
2022-10-21T14:34:56.977Z,87.36
2022-10-21T14:36:58.823Z,87.18
2022-10-21T14:39:00.661Z,87.55
2022-10-21T14:41:01.813Z,87.93
2022-10-21T14:43:02.914Z,87.88
2022-10-21T14:45:03.798Z,87.63
2022-10-21T14:47:04.741Z,87.96
2022-10-21T14:49:06.074Z,88.1
2022-10-21T14:51:07.147Z,88.18
2022-10-21T14:53:08.639Z,88.47
2022-10-21T14:55:10.243Z,88.67
2022-10-21T14:57:11.690Z,88.55
2022-10-21T14:59:12.785Z,88.45
2022-10-21T15:01:13.785Z,88.52
2022-10-21T15:03:15.413Z,88.41
2022-10-21T15:05:17.177Z,88.68
2022-10-21T15:07:18.847Z,89.02
2022-10-21T15:09:19.714Z,89.14
2022-10-21T15:11:21.468Z,89.21
2022-10-21T15:15:24.563Z,89.4
2022-10-21T15:17:25.530Z,89.51
2022-10-21T15:19:26.829Z,89.65
2022-10-21T15:21:28.090Z,89.79
2022-10-21T15:23:29.151Z,90
2022-10-21T15:25:31.003Z,90.12
2022-10-21T15:27:32.861Z,90.2
2022-10-21T15:29:33.485Z,89.97
2022-10-21T15:31:35.041Z,89.99
2022-10-21T15:33:36.552Z,90.23
2022-10-21T15:35:37.704Z,90.37
2022-10-21T15:37:39.219Z,90.53
2022-10-21T15:39:40.098Z,90.52
2022-10-21T15:43:42.209Z,91.16
2022-10-21T15:47:45.292Z,91.09
2022-10-21T15:49:46.685Z,91.47
2022-10-21T15:51:48.108Z,91.54
2022-10-21T15:53:49.140Z,91.49
2022-10-21T15:57:52.203Z,92.03
2022-10-21T15:59:53.679Z,91.96
2022-10-21T16:01:54.793Z,91.71
2022-10-21T16:03:55.776Z,91.84
2022-10-21T16:05:57.610Z,92.39
2022-10-21T16:08:07.111Z,92.47
2022-10-21T16:10:00.174Z,92.47
2022-10-21T16:12:01.743Z,92.45
2022-10-21T16:14:03.109Z,92.45
2022-10-21T16:16:04.890Z,92.23
2022-10-21T16:18:05.794Z,92.2
2022-10-21T16:20:07.432Z,92.06
2022-10-21T16:22:09.091Z,91.95
2022-10-21T16:24:10.177Z,92.07
2022-10-21T16:26:11.814Z,92.09
2022-10-21T16:28:13.439Z,92.23
2022-10-21T16:30:14.330Z,92.15
2022-10-21T16:32:15.287Z,91.88
2022-10-21T16:34:16.638Z,91.52
2022-10-21T16:36:17.991Z,91.49
2022-10-21T16:40:21.161Z,91.41
2022-10-21T16:42:22.426Z,91.62
2022-10-21T16:46:25.625Z,91.29
2022-10-21T16:48:27.330Z,91.32
2022-10-21T16:52:30.528Z,91.41
2022-10-21T16:56:33.492Z,91.41
2022-10-21T16:58:35.248Z,91.7
2022-10-21T17:00:36.604Z,92.24
2022-10-21T17:02:40.123Z,92.61
2022-10-21T17:04:39.110Z,92.62
2022-10-21T17:06:40.640Z,93
2022-10-21T17:08:42.280Z,92.78
2022-10-21T17:10:43.158Z,91.99
2022-10-21T17:11:26.856Z,91.92
2022-10-21T17:13:28.514Z,91.67
2022-10-21T17:15:29.781Z,91.76
2022-10-21T17:17:30.835Z,92.07
2022-10-21T17:19:31.916Z,92.11
2022-10-21T17:21:33.227Z,92.74
2022-10-21T17:23:34.685Z,92.63
2022-10-21T17:25:35.631Z,92.35
2022-10-21T17:27:37.693Z,92.46
2022-10-21T17:29:39.068Z,92.62
2022-10-21T17:33:42.237Z,93.2
2022-10-21T17:35:43.299Z,93.27
2022-10-21T17:37:44.195Z,93.37
2022-10-21T17:39:45.790Z,93.02
2022-10-21T17:43:48.497Z,92.25
2022-10-21T17:45:49.864Z,92.27
2022-10-21T17:47:50.955Z,92.19
2022-10-21T17:49:52.020Z,92.39
2022-10-21T17:51:53.670Z,92.52
2022-10-21T17:53:55.218Z,92.77
2022-10-21T17:55:56.963Z,93.04
2022-10-21T17:57:58.292Z,93.19
2022-10-21T17:59:59.296Z,93.09
2022-10-21T18:02:00.201Z,93.36
2022-10-21T18:06:03.497Z,93.06
2022-10-21T18:08:05.361Z,93.13
2022-10-21T18:10:06.254Z,93.08
2022-10-21T18:12:07.500Z,94
2022-10-21T18:16:09.896Z,94.38
2022-10-21T18:18:11.189Z,94.27
2022-10-21T18:20:12.560Z,94.12
2022-10-21T18:22:14.414Z,94.32
2022-10-21T18:24:15.519Z,94.35
2022-10-21T18:26:16.488Z,94.26
2022-10-21T18:28:17.516Z,94.21
2022-10-21T18:30:18.781Z,94.14
2022-10-21T18:32:20.248Z,93.94
2022-10-21T18:34:21.199Z,93.29
2022-10-21T18:36:22.662Z,93.19
2022-10-21T18:38:23.875Z,93.18
2022-10-21T18:40:24.859Z,93.2
2022-10-21T18:42:26.723Z,93.4
2022-10-21T18:44:28.555Z,93.5
2022-10-21T18:46:30.300Z,93.92
2022-10-21T18:48:31.347Z,94.09
2022-10-21T18:50:32.235Z,94.24
2022-10-21T18:52:33.536Z,94.01
2022-10-21T18:54:35.368Z,94.11
2022-10-21T18:56:36.483Z,94.02
2022-10-21T18:58:38.020Z,94.54
2022-10-21T19:00:39.815Z,94.62
2022-10-21T19:02:41.410Z,94.73
2022-10-21T19:04:42.469Z,94.78
2022-10-21T19:06:44.202Z,94.88
2022-10-21T19:08:45.965Z,94.85
2022-10-21T19:10:47.555Z,95.02
2022-10-21T19:14:49.703Z,95.39
2022-10-21T19:16:50.622Z,95.41
2022-10-21T19:18:51.618Z,95.46
2022-10-21T19:20:52.992Z,95.76
2022-10-21T19:22:54.228Z,95.63
2022-10-21T19:24:55.354Z,95.07
2022-10-21T19:26:57.041Z,95.4
2022-10-21T19:28:58.454Z,95.35
2022-10-21T19:30:59.342Z,95.29
2022-10-21T19:33:00.580Z,95.19
2022-10-21T19:35:01.532Z,95.08
2022-10-21T19:37:02.771Z,95.04
2022-10-21T19:39:04.523Z,95.15
2022-10-21T19:41:06.422Z,95.26
2022-10-21T19:43:07.845Z,95.63
2022-10-21T19:45:09.202Z,96.04
2022-10-21T19:47:10.507Z,96.29
2022-10-21T19:49:11.580Z,96.25
2022-10-21T19:51:14.489Z,96.38
2022-10-21T19:53:14.940Z,96.31
2022-10-21T19:57:17.853Z,96.88
2022-10-21T19:59:19.414Z,96.99
2022-10-21T20:01:21.201Z,96.96
2022-10-21T20:03:22.373Z,96.99
2022-10-21T20:05:23.210Z,97.12
2022-10-21T20:07:24.688Z,97.05
2022-10-21T20:09:25.828Z,97.1
2022-10-21T20:11:26.974Z,97.28
2022-10-21T20:13:27.963Z,97.29
2022-10-21T20:15:28.925Z,97.21
2022-10-21T20:19:31.418Z,97.25
2022-10-21T20:21:33.139Z,97.28
2022-10-21T20:25:35.902Z,97.12
2022-10-21T20:27:37.284Z,97.22
2022-10-21T20:29:38.390Z,97.21
2022-10-21T20:31:40.127Z,97.41
2022-10-21T20:33:41.178Z,97.47
2022-10-21T20:35:42.408Z,97.6
2022-10-21T20:37:44.118Z,97.61
2022-10-21T20:39:45.732Z,97.56
2022-10-21T20:41:46.797Z,97.43
2022-10-21T20:45:48.994Z,97.01
2022-10-21T20:47:49.996Z,96.83
2022-10-21T20:49:51.879Z,96.9
2022-10-21T20:51:53.611Z,97.17
2022-10-21T20:55:56.109Z,97.25
2022-10-21T20:57:57.620Z,97.32
2022-10-21T20:59:59.031Z,97.43
2022-10-21T21:02:00.624Z,97.6
2022-10-21T21:04:01.801Z,97.82
2022-10-21T21:06:03.603Z,97.85
2022-10-21T21:08:05.119Z,97.96
2022-10-21T21:10:06.750Z,98.06
2022-10-21T21:12:07.636Z,98.03
2022-10-21T21:14:08.931Z,98.12
2022-10-21T21:16:10.647Z,98.11
2022-10-21T21:18:12.133Z,98.1
2022-10-21T21:20:13.734Z,98.01
2022-10-21T21:22:15.536Z,98.01
2022-10-21T21:24:16.740Z,98.07
2022-10-21T21:26:18.287Z,98.04
2022-10-21T21:28:19.601Z,98.07
2022-10-21T21:30:20.910Z,98.07
2022-10-21T21:32:22.304Z,98.12
2022-10-21T21:34:23.671Z,98.22
2022-10-21T21:38:25.806Z,98.41
2022-10-21T21:40:27.364Z,98.39
2022-10-21T21:42:29.055Z,98.41
2022-10-21T21:44:30.092Z,98.4
2022-10-21T21:46:31.460Z,98.46
2022-10-21T21:48:32.457Z,98.49
2022-10-21T21:50:33.488Z,98.55
2022-10-21T21:52:34.719Z,98.59
2022-10-21T21:54:36.425Z,98.61
2022-10-21T21:56:38.113Z,98.64
2022-10-21T21:58:39.881Z,98.69
2022-10-21T22:00:41.163Z,98.66
2022-10-21T22:02:42.331Z,98.68
2022-10-21T22:04:43.386Z,98.69
2022-10-21T22:06:44.794Z,98.68
2022-10-21T22:08:46.243Z,98.69
2022-10-21T22:10:47.724Z,98.69
2022-10-21T22:12:49.134Z,98.7
2022-10-21T22:14:50.896Z,98.73
2022-10-21T22:16:52.373Z,98.84
2022-10-21T22:20:55.020Z,98.67
2022-10-21T22:22:56.892Z,98.66
2022-10-21T22:24:58.473Z,98.7
2022-10-21T22:27:00.118Z,98.77
2022-10-21T22:29:02.004Z,98.83
2022-10-21T22:31:03.136Z,98.87
2022-10-21T22:33:04.520Z,98.88
2022-10-21T22:35:05.881Z,99.04
2022-10-21T22:37:06.781Z,99.04
2022-10-21T22:39:07.956Z,99
2022-10-21T22:41:12.407Z,99.14
2022-10-21T22:43:10.286Z,99.16
2022-10-21T22:45:11.365Z,99.08
2022-10-21T22:47:12.836Z,98.73
2022-10-21T22:49:14.649Z,98.6
2022-10-21T22:51:16.002Z,98.72
2022-10-21T22:53:17.283Z,98.69
2022-10-21T22:55:18.653Z,98.6
2022-10-21T22:57:20.299Z,98.52
2022-10-21T22:59:22.101Z,98.45
2022-10-21T23:01:23.502Z,98.44
2022-10-21T23:03:24.482Z,98.42
2022-10-21T23:05:25.493Z,98.43
2022-10-21T23:07:26.777Z,98.45
2022-10-21T23:09:27.830Z,98.49
2022-10-21T23:11:29.377Z,98.5
2022-10-21T23:13:30.485Z,98.51
2022-10-21T23:15:31.712Z,98.54
2022-10-21T23:19:34.507Z,98.52
2022-10-21T23:21:36.224Z,98.59
2022-10-21T23:23:37.132Z,98.65
2022-10-21T23:25:38.426Z,98.68
2022-10-21T23:27:39.496Z,98.69
2022-10-21T23:29:40.765Z,98.69
2022-10-21T23:31:42.255Z,98.87
2022-10-21T23:33:44.087Z,99
2022-10-21T23:35:45.810Z,98.93
2022-10-21T23:37:47.200Z,98.87
2022-10-21T23:39:48.224Z,98.78
2022-10-21T23:41:49.363Z,98.73
2022-10-21T23:43:50.263Z,98.69
2022-10-21T23:45:51.321Z,98.63
2022-10-21T23:47:52.475Z,98.68
2022-10-21T23:51:55.942Z,98.66
2022-10-21T23:53:57.598Z,98.64
2022-10-21T23:56:42.771Z,98.62
2022-10-21T23:58:43.716Z,98.61
